Time;durP1;ratioP1;P1;durP2;ratioP2;P2;SDS_P1;SDS_P2;PMS_P1;PMS_P2;Temp;Humidity;BMP_temperature;BMP_pressure;BME280_temperature;BME280_humidity;BME280_pressure;Samples;Min_cycle;Max_cycle;Signal;HPM_P1;HPM_P2
2022/06/16 00:00:57;;;;;;;;;11.25;8.50;;;;;23.15;40.81;101451.69;6143485;22;47373;-93
2022/06/16 00:03:23;;;;;;;;;8.50;8.50;;;;;23.21;40.40;101468.97;6188599;22;45670;-90
2022/06/16 00:05:49;;;;;;;;;11.00;8.00;;;;;23.25;41.11;101477.59;6186838;22;45375;-90
2022/06/16 00:08:16;;;;;;;;;10.00;9.00;;;;;23.11;41.57;101466.13;6212020;22;45462;-91
2022/06/16 00:13:29;;;;;;;;;8.50;8.00;;;;;23.03;41.81;101489.69;6212281;22;45196;-91
2022/06/16 00:15:54;;;;;;;;;10.50;10.00;;;;;22.83;41.87;101469.00;6212575;22;45379;-92
2022/06/16 00:18:20;;;;;;;;;8.25;6.75;;;;;22.79;42.07;101474.50;6186895;22;45374;-92
2022/06/16 00:20:45;;;;;;;;;9.00;9.00;;;;;22.65;42.99;101463.97;6186652;22;45958;-92
2022/06/16 00:23:11;;;;;;;;;11.00;10.50;;;;;22.69;42.60;101472.59;6186810;22;45362;-92
2022/06/16 00:25:36;;;;;;;;;9.50;8.50;;;;;22.59;41.98;101462.59;6224671;22;45315;-92
2022/06/16 00:28:07;;;;;;;;;8.75;8.50;;;;;22.77;43.50;101499.44;6236410;22;44777;-92
2022/06/16 00:30:35;;;;;;;;;11.00;9.00;;;;;22.48;42.75;101457.19;6223451;22;46995;-92
2022/06/16 00:33:01;;;;;;;;;10.25;10.25;;;;;22.50;42.96;101467.69;6213248;22;45234;-92
2022/06/16 00:35:26;;;;;;;;;12.00;10.00;;;;;22.55;43.20;101478.84;6212944;22;45254;-92
2022/06/16 00:37:52;;;;;;;;;13.75;9.00;;;;;22.38;43.01;101469.34;6213399;22;45346;-92
2022/06/16 00:40:20;;;;;;;;;10.50;10.50;;;;;22.39;42.83;101479.03;6186089;22;46272;-92
2022/06/16 00:42:53;;;;;;;;;10.25;10.25;;;;;22.37;43.00;101481.78;6212069;22;45564;-93
2022/06/16 00:45:43;;;;;;;;;10.00;9.00;;;;;22.47;43.95;101507.69;6213126;22;45249;-92
2022/06/16 00:48:20;;;;;;;;;12.25;10.25;;;;;22.21;43.97;101478.41;6213221;22;45211;-93
2022/06/16 00:51:11;;;;;;;;;13.00;12.25;;;;;22.21;43.83;101486.34;6186423;22;47481;-93
2022/06/16 00:54:08;;;;;;;;;12.75;10.75;;;;;22.14;43.79;101485.94;6091084;23;45372;-93
2022/06/16 00:57:21;;;;;;;;;9.25;8.75;;;;;22.27;44.36;101511.66;6091543;23;45327;-94
2022/06/16 01:00:15;;;;;;;;;11.25;10.50;;;;;22.06;44.48;101490.88;6091251;23;45291;-93
2022/06/16 01:06:52;;;;;;;;;11.25;10.50;;;;;21.89;44.80;101510.53;5948808;23;45216;-96
2022/06/16 01:09:51;;;;;;;;;;;;;;;;;;;;;
2022/06/16 01:15:55;;;;;;;;;12.50;11.25;;;;;21.95;44.26;101541.09;5922844;24;45351;-94
2022/06/16 01:18:46;;;;;;;;;12.25;9.25;;;;;21.91;44.82;101545.72;5920703;24;45886;-94
2022/06/16 01:21:53;;;;;;;;;10.00;9.25;;;;;21.88;45.19;101548.59;5811296;24;45353;-94
2022/06/16 01:25:00;;;;;;;;;13.00;10.50;;;;;21.66;45.29;101519.97;5811294;24;45607;-94
2022/06/16 01:31:15;;;;;;;;;;;;;;;;;;;;;
2022/06/16 01:34:09;;;;;;;;;11.00;10.50;;;;;21.56;46.69;101554.13;5730770;24;69333;-94
2022/06/16 01:36:49;;;;;;;;;11.00;11.00;;;;;21.60;45.44;101557.41;5721399;24;45454;-93
2022/06/16 01:39:44;;;;;;;;;13.25;11.25;;;;;21.42;45.88;101533.75;5724534;24;46494;-93
2022/06/16 01:42:30;;;;;;;;;14.00;9.75;;;;;21.46;45.96;101537.94;5720014;24;45581;-94
2022/06/16 01:45:13;;;;;;;;;13.50;10.00;;;;;21.61;46.23;101569.72;5740711;24;45428;-92
2022/06/16 01:47:58;;;;;;;;;11.00;10.00;;;;;21.49;45.52;101559.88;5838921;24;45455;-94
2022/06/16 01:50:52;;;;;;;;;9.25;9.25;;;;;21.57;45.67;101574.34;5846005;24;45381;-92
2022/06/16 01:53:38;;;;;;;;;9.75;9.75;;;;;21.41;45.72;101545.31;5838553;24;45338;-94
2022/06/16 01:56:37;;;;;;;;;;;;;;;;;;;;;
2022/06/16 01:59:50;;;;;;;;;13.00;12.75;;;;;21.35;47.32;101550.13;5902283;23;70300;-92
2022/06/16 02:02:40;;;;;;;;;12.75;11.50;;;;;21.30;46.65;101563.63;5922411;23;47228;-93
2022/06/16 02:05:12;;;;;;;;;10.75;10.25;;;;;21.44;46.67;101583.97;5931694;23;45626;-95
2022/06/16 02:08:33;;;;;;;;;11.00;10.00;;;;;21.27;46.51;101567.31;5976233;23;45302;-93
2022/06/16 02:11:12;;;;;;;;;13.50;12.25;;;;;21.30;46.38;101581.31;6076062;23;45351;-93
2022/06/16 02:13:47;;;;;;;;;12.00;12.00;;;;;21.16;46.41;101561.84;6125325;23;47880;-92
2022/06/16 02:16:27;;;;;;;;;14.25;10.50;;;;;21.12;47.41;101568.25;6125925;23;45400;-94
2022/06/16 02:19:11;;;;;;;;;10.00;9.50;;;;;20.96;47.23;101562.19;6127147;23;45215;-93
2022/06/16 02:22:00;;;;;;;;;14.00;13.00;;;;;20.87;47.69;101561.75;6128659;23;45262;-93
2022/06/16 02:24:41;;;;;;;;;;;;;;;;;;;;;
2022/06/16 02:27:19;;;;;;;;;13.00;12.25;;;;;20.77;48.25;101581.78;6121297;23;73278;-91
2022/06/16 02:29:51;;;;;;;;;13.75;12.00;;;;;20.74;47.82;101581.13;6149857;23;45254;-91
2022/06/16 02:32:48;;;;;;;;;13.00;11.25;;;;;20.80;47.64;101580.75;6126611;23;45460;-92
2022/06/16 02:36:10;;;;;;;;;;;;;;;;;;;;;
2022/06/16 02:38:55;;;;;;;;;14.50;12.75;;;;;20.56;48.10;101556.53;6051999;23;73360;-91
2022/06/16 02:41:55;;;;;;;;;13.25;11.75;;;;;20.60;48.34;101563.38;6067654;23;45433;-92
2022/06/16 02:44:53;;;;;;;;;11.50;11.50;;;;;20.54;48.23;101563.72;6092018;23;45448;-92
2022/06/16 02:47:46;;;;;;;;;5.75;5.75;;;;;20.67;48.24;101602.66;6068800;23;48079;-93
2022/06/16 02:51:27;;;;;;;;;13.75;12.75;;;;;20.41;49.38;101574.13;6091773;23;45369;-94
2022/06/16 02:56:53;;;;;;;;;12.25;12.25;;;;;20.52;48.57;101608.75;6034673;23;45266;-92
2022/06/16 02:59:46;;;;;;;;;13.00;12.50;;;;;20.37;48.99;101585.84;6033621;23;46729;-92
2022/06/16 03:02:24;;;;;;;;;11.50;11.00;;;;;20.42;48.72;101589.94;5976404;23;45845;-93
2022/06/16 03:05:22;;;;;;;;;14.25;14.25;;;;;20.32;48.96;101583.47;5953895;23;44840;-92
2022/06/16 03:08:02;;;;;;;;;14.25;10.75;;;;;20.30;48.53;101578.25;5991133;23;45430;-91
2022/06/16 03:13:29;;;;;;;;;13.50;12.75;;;;;20.17;48.95;101587.84;5936099;23;45262;-93
2022/06/16 03:16:04;;;;;;;;;16.75;14.75;;;;;20.15;49.18;101594.13;5973660;23;45461;-93
2022/06/16 03:18:30;;;;;;;;;12.00;11.50;;;;;20.10;49.35;101604.97;5950508;23;45155;-92
2022/06/16 03:20:55;;;;;;;;;14.00;13.00;;;;;19.97;49.76;101588.94;5948494;23;46401;-91
2022/06/16 03:23:21;;;;;;;;;17.50;15.00;;;;;20.00;49.43;101599.34;5953099;23;45334;-91
2022/06/16 03:25:46;;;;;;;;;17.25;15.25;;;;;20.02;50.00;101607.16;6038616;23;45289;-90
2022/06/16 03:28:13;;;;;;;;;14.00;12.75;;;;;19.92;50.20;101598.88;6038673;23;45429;-92
2022/06/16 03:30:42;;;;;;;;;12.75;12.25;;;;;19.87;50.25;101593.00;6014486;23;48054;-91
2022/06/16 03:33:09;;;;;;;;;15.75;13.75;;;;;19.84;50.04;101601.09;6040521;23;45287;-92
2022/06/16 03:35:38;;;;;;;;;16.50;13.50;;;;;19.83;50.12;101608.16;6062805;23;45365;-93
2022/06/16 03:38:16;;;;;;;;;18.25;14.75;;;;;19.83;50.59;101607.31;6044593;22;45278;-91
2022/06/16 03:40:41;;;;;;;;;13.00;11.00;;;;;19.79;49.59;101603.13;6212046;22;45292;-91
2022/06/16 03:43:10;;;;;;;;;16.50;14.25;;;;;19.78;49.82;101602.28;6213901;22;44708;-92
2022/06/16 03:45:49;;;;;;;;;16.00;14.25;;;;;19.85;50.22;101616.00;6187742;22;45328;-92
2022/06/16 03:48:20;;;;;;;;;17.75;15.75;;;;;19.63;50.80;101597.78;6187204;22;45264;-92
2022/06/16 03:50:57;;;;;;;;;13.00;12.50;;;;;19.65;50.36;101606.47;6213154;22;45797;-93
2022/06/16 03:53:28;;;;;;;;;13.50;12.00;;;;;19.61;50.60;101603.13;6213716;22;45204;-92
2022/06/16 03:55:59;;;;;;;;;19.75;16.00;;;;;19.82;50.24;101640.81;6213619;22;45219;-91
2022/06/16 03:58:24;;;;;;;;;14.50;13.50;;;;;19.72;51.10;101618.41;6212248;22;45398;-92
2022/06/16 04:01:09;;;;;;;;;10.50;10.50;;;;;19.67;50.02;101612.56;6212366;22;45360;-92
2022/06/16 04:09:16;;;;;;;;;10.50;9.00;;;;;19.76;49.83;101633.22;6213556;22;45438;-92
2022/06/16 04:11:44;;;;;;;;;14.50;13.00;;;;;19.58;50.75;101610.41;6186424;22;46782;-93
2022/06/16 04:14:12;;;;;;;;;10.75;10.75;;;;;19.54;50.40;101615.84;6212107;22;45729;-92
2022/06/16 04:16:54;;;;;;;;;20.50;14.00;;;;;19.68;50.41;101632.72;6186546;22;45344;-92
2022/06/16 04:19:27;;;;;;;;;15.50;13.75;;;;;19.64;50.03;101624.13;6186777;22;45417;-92
2022/06/16 04:21:53;;;;;;;;;14.00;13.00;;;;;19.47;50.49;101614.44;6186872;22;46697;-91
2022/06/16 04:24:24;;;;;;;;;13.50;13.50;;;;;19.54;50.31;101622.91;6186998;22;45241;-91
2022/06/16 04:26:57;;;;;;;;;17.75;15.00;;;;;19.51;50.55;101626.53;6162206;22;45204;-91
2022/06/16 04:29:24;;;;;;;;;16.00;13.00;;;;;19.71;50.35;101661.63;6187904;22;45396;-91
2022/06/16 04:31:50;;;;;;;;;19.75;15.25;;;;;19.65;50.78;101659.28;6211562;22;47028;-92
2022/06/16 04:34:15;;;;;;;;;15.50;14.25;;;;;19.55;51.24;101643.09;6211962;22;45554;-92
2022/06/16 04:36:41;;;;;;;;;15.25;15.25;;;;;19.48;50.95;101639.06;6211882;22;45268;-91
2022/06/16 04:39:06;;;;;;;;;14.00;11.50;;;;;19.44;50.92;101641.00;6213292;22;45418;-92
2022/06/16 04:41:32;;;;;;;;;17.25;12.75;;;;;19.56;50.82;101659.78;6186379;22;47427;-91
2022/06/16 04:43:57;;;;;;;;;16.50;12.25;;;;;19.51;50.35;101649.47;6186718;22;45386;-91
2022/06/16 04:46:26;;;;;;;;;18.00;16.00;;;;;19.64;50.72;101662.88;6212941;22;45216;-90
2022/06/16 04:48:54;;;;;;;;;17.00;14.50;;;;;19.53;50.79;101659.00;6187482;22;45426;-91
2022/06/16 04:51:19;;;;;;;;;15.25;13.75;;;;;19.69;50.64;101666.16;6186967;22;46981;-92
2022/06/16 04:53:47;;;;;;;;;16.75;13.75;;;;;19.61;50.01;101652.47;6211826;22;45414;-92
2022/06/16 04:56:12;;;;;;;;;13.00;12.00;;;;;19.76;50.16;101670.22;6213101;22;45295;-92
2022/06/16 04:58:40;;;;;;;;;15.75;14.00;;;;;19.79;50.17;101671.81;6185793;22;45421;-91
2022/06/16 05:01:16;;;;;;;;;16.00;13.75;;;;;19.68;50.91;101661.78;6206370;22;45584;-92
2022/06/16 05:03:53;;;;;;;;;17.50;14.75;;;;;19.78;49.78;101694.75;6206980;22;45446;-93
2022/06/16 05:06:21;;;;;;;;;18.50;14.50;;;;;19.78;50.72;101697.41;6207150;22;45330;-92
2022/06/16 05:08:48;;;;;;;;;16.25;15.50;;;;;19.77;50.47;101700.09;6208775;22;45275;-92
2022/06/16 05:11:14;;;;;;;;;20.00;17.25;;;;;19.81;50.55;101702.50;6209211;22;46628;-92
2022/06/16 05:13:42;;;;;;;;;17.25;14.00;;;;;19.62;49.97;101676.16;6180928;23;45161;-93
2022/06/16 05:16:08;;;;;;;;;17.25;15.00;;;;;19.63;50.72;101688.44;6182006;23;45338;-92
2022/06/16 05:18:43;;;;;;;;;14.25;13.00;;;;;19.62;50.87;101685.88;6206545;22;45533;-93
2022/06/16 05:21:13;;;;;;;;;15.50;14.50;;;;;19.76;50.26;101712.47;6181515;23;45463;-93
2022/06/16 05:23:39;;;;;;;;;20.00;19.00;;;;;19.77;50.25;101708.88;6206891;22;45654;-91
2022/06/16 05:26:06;;;;;;;;;17.00;14.75;;;;;19.79;51.05;101736.06;6181216;23;45301;-91
2022/06/16 05:28:36;;;;;;;;;15.25;13.00;;;;;19.68;50.29;101731.31;6208262;22;45381;-93
2022/06/16 05:31:02;;;;;;;;;18.75;15.75;;;;;19.68;50.63;101733.94;6181404;23;46343;-86
2022/06/16 05:33:27;;;;;;;;;18.75;14.50;;;;;19.71;51.22;101757.56;6205141;22;45758;-86
2022/06/16 05:36:01;;;;;;;;;19.00;15.00;;;;;19.56;50.79;101742.50;6205186;22;45312;-91
2022/06/16 05:38:26;;;;;;;;;14.75;13.25;;;;;19.61;51.53;101753.66;6204944;22;45504;-85
2022/06/16 05:41:13;;;;;;;;;21.25;17.00;;;;;19.65;51.41;101767.56;6181051;22;45263;-86
2022/06/16 05:43:40;;;;;;;;;20.00;16.75;;;;;19.63;51.26;101765.03;6204738;22;45243;-85
2022/06/16 05:46:07;;;;;;;;;17.25;15.25;;;;;19.71;51.28;101776.06;6181519;22;45300;-84
2022/06/16 05:48:33;;;;;;;;;17.50;14.50;;;;;19.71;51.34;101786.63;6181372;22;45309;-84
2022/06/16 05:51:04;;;;;;;;;19.00;18.25;;;;;19.72;51.25;101775.16;6181369;22;45324;-84
2022/06/16 05:53:29;;;;;;;;;16.50;14.50;;;;;19.76;50.77;101781.16;6205768;22;45325;-86
2022/06/16 05:55:54;;;;;;;;;19.25;15.50;;;;;19.80;51.06;101774.78;6182041;23;45338;-83
2022/06/16 05:58:20;;;;;;;;;16.25;15.50;;;;;19.88;51.02;101777.88;6180151;23;59746;-83
2022/06/16 06:00:45;;;;;;;;;19.50;17.75;;;;;19.85;50.03;101777.16;6186855;22;68474;-86
2022/06/16 06:03:10;;;;;;;;;17.75;15.25;;;;;19.88;50.04;101767.28;6209696;22;45409;-86
2022/06/16 06:05:38;;;;;;;;;21.25;16.75;;;;;20.02;50.06;101792.13;6211475;22;45319;-87
2022/06/16 06:16:35;;;;;;;;;16.75;16.75;;;;;20.05;50.52;101789.34;6190446;22;45293;-86
2022/06/16 06:19:23;;;;;;;;;20.50;16.75;;;;;20.01;50.42;101788.66;6212466;22;45316;-86
2022/06/16 06:22:01;;;;;;;;;26.00;18.00;;;;;20.06;49.82;101791.91;6212287;22;46607;-85
2022/06/16 06:24:29;;;;;;;;;21.25;15.00;;;;;20.11;49.78;101799.59;6186830;22;45763;-86
2022/06/16 06:26:57;;;;;;;;;20.00;17.00;;;;;20.17;49.96;101807.22;6185861;22;45337;-85
2022/06/16 06:29:25;;;;;;;;;19.75;15.50;;;;;20.13;49.48;101799.53;6186076;22;45544;-86
2022/06/16 06:31:53;;;;;;;;;19.75;16.00;;;;;20.21;49.65;101813.22;6212983;22;46266;-86
2022/06/16 06:34:18;;;;;;;;;20.00;15.50;;;;;20.22;49.83;101806.97;6185966;22;45225;-86
2022/06/16 06:36:48;;;;;;;;;17.25;17.25;;;;;20.09;49.32;101794.38;6211151;22;45224;-86
2022/06/16 06:39:14;;;;;;;;;17.50;16.00;;;;;20.10;49.87;101804.03;6185967;22;45292;-86
2022/06/16 06:41:52;;;;;;;;;;;;;;;;;;;;;
2022/06/16 06:44:17;;;;;;;;;15.50;14.25;;;;;20.17;49.31;101812.50;6186920;22;73126;-85
2022/06/16 06:46:43;;;;;;;;;18.25;14.00;;;;;20.34;49.52;101821.31;6210679;22;45224;-86
2022/06/16 06:49:10;;;;;;;;;16.50;13.50;;;;;20.35;49.03;101809.81;6209815;22;53161;-86
2022/06/16 06:51:36;;;;;;;;;19.25;16.25;;;;;20.44;49.59;101814.63;6211938;22;46334;-86
2022/06/16 06:54:02;;;;;;;;;19.75;17.50;;;;;20.57;49.04;101831.53;6210062;22;45316;-84
2022/06/16 06:56:29;;;;;;;;;15.00;14.75;;;;;20.58;48.37;101824.44;6210779;22;45342;-84
2022/06/16 06:58:56;;;;;;;;;16.25;15.00;;;;;20.71;47.98;101835.25;6212448;22;45268;-83
2022/06/16 07:01:22;;;;;;;;;15.00;13.00;;;;;20.74;48.36;101829.81;6185503;22;47158;-88
2022/06/16 07:03:49;;;;;;;;;16.75;14.25;;;;;20.89;47.75;101836.88;6209917;22;45378;-84
2022/06/16 07:06:16;;;;;;;;;13.00;13.00;;;;;21.01;47.20;101836.22;6210577;22;45323;-84
2022/06/16 07:08:41;;;;;;;;;9.75;9.75;;;;;21.04;46.58;101828.13;6185245;22;45415;-86
2022/06/16 07:11:07;;;;;;;;;15.00;12.25;;;;;21.11;46.83;101825.97;6209865;22;48063;-87
2022/06/16 07:13:33;;;;;;;;;12.00;10.75;;;;;21.17;46.73;101825.66;6184516;22;57558;-84
2022/06/16 07:15:59;;;;;;;;;15.00;12.00;;;;;21.37;45.72;101852.78;6185874;22;45331;-84
2022/06/16 07:18:24;;;;;;;;;14.25;12.00;;;;;21.43;45.94;101852.41;6159558;22;51737;-83
2022/06/16 07:20:51;;;;;;;;;11.75;11.00;;;;;21.43;44.96;101863.00;6211376;22;68231;-83
2022/06/16 07:23:18;;;;;;;;;10.50;9.75;;;;;21.46;45.74;101857.59;6185249;22;45729;-85
2022/06/16 07:25:45;;;;;;;;;15.50;13.50;;;;;21.57;44.98;101870.22;6211971;22;45299;-87
2022/06/16 07:28:11;;;;;;;;;13.00;11.00;;;;;21.61;44.68;101861.16;6186119;22;45475;-88
2022/06/16 07:30:37;;;;;;;;;18.25;10.25;;;;;21.69;44.73;101869.50;6185570;22;46215;-88
2022/06/16 07:33:02;;;;;;;;;12.00;9.50;;;;;21.79;43.75;101869.84;6211093;22;45366;-88
2022/06/16 07:35:28;;;;;;;;;11.00;10.00;;;;;21.75;43.57;101853.25;6211405;22;45470;-88
2022/06/16 07:37:56;;;;;;;;;12.75;9.00;;;;;21.88;43.27;101873.72;6182775;22;45351;-88
2022/06/16 07:40:32;;;;;;;;;14.00;10.50;;;;;21.85;43.25;101866.81;6181959;22;46253;-88
2022/06/16 07:42:57;;;;;;;;;13.00;9.50;;;;;21.98;43.35;101869.59;6209218;22;45734;-85
2022/06/16 07:45:27;;;;;;;;;9.00;9.00;;;;;22.16;42.50;101875.63;6210717;22;45381;-88
2022/06/16 07:47:53;;;;;;;;;8.67;8.33;;;;;22.22;42.15;101865.47;6185009;22;45255;-88
2022/06/16 07:50:19;;;;;;;;;10.00;8.25;;;;;22.29;41.60;101862.47;6211093;22;45335;-87
2022/06/16 07:52:45;;;;;;;;;11.00;8.00;;;;;22.36;41.55;101866.47;6211809;22;45694;-88
2022/06/16 07:55:11;;;;;;;;;11.50;8.75;;;;;22.49;40.49;101875.41;6209492;22;45338;-88
2022/06/16 07:57:45;;;;;;;;;10.25;8.50;;;;;22.52;40.47;101874.34;6185381;22;45596;-88
2022/06/16 08:00:13;;;;;;;;;13.75;9.25;;;;;22.58;41.29;101864.22;6211124;22;45324;-87
2022/06/16 08:02:38;;;;;;;;;9.00;9.00;;;;;22.60;40.95;101861.44;6184606;22;45722;-87
2022/06/16 08:05:05;;;;;;;;;7.00;7.00;;;;;22.74;40.52;101864.09;6209896;22;45196;-87
2022/06/16 08:07:30;;;;;;;;;9.75;8.75;;;;;22.85;40.36;101863.44;6211929;22;45220;-87
2022/06/16 08:09:55;;;;;;;;;10.50;9.50;;;;;22.90;39.67;101861.34;6211022;22;46216;-87
2022/06/16 08:12:21;;;;;;;;;10.00;10.00;;;;;22.98;39.53;101868.81;6210269;22;45272;-87
2022/06/16 08:14:47;;;;;;;;;8.75;8.25;;;;;22.95;38.38;101861.88;6184393;22;60592;-87
2022/06/16 08:17:17;;;;;;;;;12.00;8.00;;;;;23.06;38.21;101876.31;6184945;22;45441;-86
2022/06/16 08:19:42;;;;;;;;;10.00;8.00;;;;;23.02;38.69;101870.31;6184397;22;45341;-88
2022/06/16 08:22:08;;;;;;;;;8.00;7.75;;;;;23.07;38.59;101862.97;6209912;22;45315;-87
2022/06/16 08:24:33;;;;;;;;;10.25;7.25;;;;;23.13;38.50;101861.72;6184673;22;45261;-87
2022/06/16 08:27:02;;;;;;;;;7.50;7.25;;;;;23.27;38.32;101863.47;6208931;22;59393;-87
2022/06/16 08:29:28;;;;;;;;;7.25;7.00;;;;;23.42;38.02;101877.53;6184676;22;45470;-87
2022/06/16 08:31:54;;;;;;;;;8.00;6.50;;;;;23.49;36.92;101861.09;6185751;22;45236;-89
2022/06/16 08:34:19;;;;;;;;;8.25;6.00;;;;;23.62;37.51;101869.13;6212846;22;45374;-88
2022/06/16 08:36:45;;;;;;;;;6.75;6.75;;;;;23.77;36.45;101875.22;6208763;22;59585;-88
2022/06/16 08:39:10;;;;;;;;;4.75;4.75;;;;;23.88;35.81;101867.41;6209883;22;46162;-88
2022/06/16 08:42:14;;;;;;;;;7.50;6.00;;;;;24.00;36.94;101864.91;6209753;22;45359;-87
2022/06/16 08:44:50;;;;;;;;;7.50;5.75;;;;;24.08;35.74;101865.22;6148206;23;45284;-87
2022/06/16 08:47:21;;;;;;;;;5.75;5.50;;;;;24.11;34.52;101865.00;6148116;23;45380;-87
2022/06/16 08:50:13;;;;;;;;;;;;;;;;;;;;;
2022/06/16 08:52:50;;;;;;;;;8.25;6.00;;;;;24.28;34.71;101875.34;6148336;23;72864;-89
2022/06/16 08:56:01;;;;;;;;;6.25;5.75;;;;;24.27;34.20;101862.97;6150179;23;45384;-90
2022/06/16 08:58:52;;;;;;;;;;;;;;;;;;;;;
2022/06/16 09:01:44;;;;;;;;;6.00;6.00;;;;;24.38;33.25;101848.09;6114443;23;75708;-89
2022/06/16 09:04:24;;;;;;;;;7.50;5.25;;;;;24.31;33.27;101835.22;6120576;23;45642;-89
2022/06/16 09:07:21;;;;;;;;;5.00;5.00;;;;;24.55;34.14;101871.72;6119797;23;45439;-90
2022/06/16 09:10:38;;;;;;;;;5.50;5.00;;;;;24.67;33.35;101860.22;6120836;23;45266;-91
2022/06/16 09:13:54;;;;;;;;;5.00;5.00;;;;;24.69;33.25;101837.00;6114435;23;45526;-90
2022/06/16 09:17:06;;;;;;;;;;;;;;;;;;;;;
2022/06/16 09:20:20;;;;;;;;;5.50;5.00;;;;;25.00;32.57;101850.78;6119540;23;67936;-90
2022/06/16 09:22:59;;;;;;;;;6.00;6.00;;;;;25.23;32.86;101878.44;6088557;23;45293;-90
2022/06/16 09:25:53;;;;;;;;;5.75;5.75;;;;;25.23;32.65;101856.25;6089938;23;45511;-89
2022/06/16 09:35:38;;;;;;;;;;;;;;;;;;;;;
2022/06/16 09:38:49;;;;;;;;;;;;;;;;;;;;;
2022/06/16 09:45:07;;;;;;;;;;;;;;;;;;;;;
2022/06/16 09:48:28;;;;;;;;;;;;;;;;;;;;;
2022/06/16 09:51:19;;;;;;;;;4.25;4.25;;;;;26.00;31.22;101835.38;6031194;23;73945;-90
2022/06/16 09:54:09;;;;;;;;;7.25;5.25;;;;;26.16;31.60;101852.88;5987552;23;45756;-92
2022/06/16 09:56:51;;;;;;;;;6.50;5.00;;;;;26.13;30.63;101842.41;6034984;23;45280;-92
2022/06/16 09:59:26;;;;;;;;;5.25;5.25;;;;;26.13;31.42;101840.59;5980658;23;45363;-94
2022/06/16 10:02:00;;;;;;;;;8.00;5.75;;;;;26.13;31.56;101824.59;5974312;23;45357;-89
2022/06/16 10:04:26;;;;;;;;;22.50;22.25;;;;;26.28;31.32;101835.91;5928837;23;45435;-91
2022/06/16 10:07:08;;;;;;;;;7.00;7.00;;;;;26.44;31.16;101838.19;5976569;23;46468;-91
2022/06/16 10:10:05;;;;;;;;;;;;;;;;;;;;;
2022/06/16 10:13:01;;;;;;;;;5.50;5.00;;;;;26.62;30.05;101862.63;5975694;23;75027;-90
2022/06/16 10:15:41;;;;;;;;;6.25;6.25;;;;;26.50;29.02;101843.03;5980600;23;45189;-91
2022/06/16 10:18:08;;;;;;;;;7.50;5.50;;;;;26.58;29.25;101837.97;6003630;23;45320;-92
2022/06/16 10:20:33;;;;;;;;;7.50;5.00;;;;;26.67;28.89;101849.78;6004521;23;45268;-94
2022/06/16 10:23:08;;;;;;;;;7.25;6.00;;;;;26.72;29.45;101850.22;5961645;23;47592;-91
2022/06/16 10:25:37;;;;;;;;;6.00;6.00;;;;;26.72;29.18;101836.88;6176488;23;45239;-91
2022/06/16 10:28:32;;;;;;;;;4.50;4.50;;;;;26.94;29.25;101860.03;6180559;23;45189;-91
2022/06/16 10:30:59;;;;;;;;;4.75;3.50;;;;;26.98;28.51;101861.47;6181624;23;45240;-93
2022/06/16 10:33:28;;;;;;;;;6.00;5.75;;;;;27.00;28.05;101851.50;6161207;23;47063;-90
2022/06/16 10:36:07;;;;;;;;;3.75;3.75;;;;;26.98;28.47;101842.78;6181846;23;45357;-89
2022/06/16 10:38:44;;;;;;;;;5.50;4.00;;;;;26.99;28.29;101831.13;6182830;23;45264;-93
2022/06/16 10:42:00;;;;;;;;;;;;;;;;;;;;;
2022/06/16 10:44:27;;;;;;;;;5.00;3.25;;;;;27.20;28.06;101836.53;6180837;23;76365;-95
2022/06/16 10:47:07;;;;;;;;;;;;;;;;;;;;;
2022/06/16 10:49:45;;;;;;;;;;;;;;;;;;;;;
2022/06/16 10:52:24;;;;;;;;;4.25;4.00;;;;;27.44;27.95;101846.22;6155005;23;70224;-89
2022/06/16 10:55:07;;;;;;;;;6.00;6.00;;;;;27.48;28.36;101844.97;6154456;23;46646;-91
2022/06/16 10:57:40;;;;;;;;;6.75;5.75;;;;;27.52;27.50;101846.41;6180263;23;45320;-89
2022/06/16 11:00:19;;;;;;;;;6.25;4.75;;;;;27.57;27.46;101843.34;6139734;23;45240;-96
2022/06/16 11:03:15;;;;;;;;;5.25;5.25;;;;;27.65;28.29;101845.38;6187089;23;45338;-96
2022/06/16 11:05:58;;;;;;;;;6.50;5.00;;;;;27.73;28.64;101853.59;6188727;22;47238;-95
2022/06/16 11:09:24;;;;;;;;;;;;;;;;;;;;;
2022/06/16 11:12:39;;;;;;;;;;;;;;;;;;;;;
2022/06/16 11:15:29;;;;;;;;;9.25;6.00;;;;;27.98;27.88;101831.00;6033965;23;70087;-90
2022/06/16 11:17:58;;;;;;;;;6.25;6.00;;;;;28.16;29.40;101839.28;6034490;23;45460;-89
2022/06/16 11:20:34;;;;;;;;;8.00;6.50;;;;;28.15;27.53;101845.59;6032421;23;45967;-87
2022/06/16 11:23:00;;;;;;;;;55.50;42.50;;;;;28.21;28.74;101845.06;6033951;23;45449;-90
2022/06/16 11:25:30;;;;;;;;;10.25;8.25;;;;;28.32;28.63;101853.00;6009146;23;45603;-86
2022/06/16 11:28:02;;;;;;;;;7.00;6.00;;;;;28.34;28.44;101839.47;6006983;23;48402;-83
2022/06/16 11:30:32;;;;;;;;;7.50;7.00;;;;;28.53;28.03;101849.47;6031138;23;45395;-83
2022/06/16 11:32:58;;;;;;;;;4.00;4.00;;;;;28.63;27.35;101850.34;6031658;23;45327;-85
2022/06/16 11:35:36;;;;;;;;;7.50;6.25;;;;;28.64;26.79;101837.78;6030896;23;45450;-87
2022/06/16 11:38:21;;;;;;;;;7.25;6.25;;;;;28.74;28.61;101844.03;6031907;23;47527;-87
2022/06/16 11:40:51;;;;;;;;;5.75;5.75;;;;;28.80;27.71;101854.22;6031508;23;45625;-87
2022/06/16 11:43:55;;;;;;;;;8.75;6.00;;;;;28.86;27.75;101840.28;6031863;23;45310;-88
2022/06/16 11:46:25;;;;;;;;;8.25;6.25;;;;;28.92;28.21;101831.69;6025811;23;45380;-88
2022/06/16 11:48:56;;;;;;;;;5.50;5.50;;;;;29.04;27.17;101839.59;6135060;22;47460;-87
2022/06/16 11:51:27;;;;;;;;;7.00;7.00;;;;;29.07;27.05;101844.69;6181019;23;45302;-87
2022/06/16 11:53:55;;;;;;;;;10.00;7.50;;;;;29.12;28.62;101845.09;6179827;23;45353;-88
2022/06/16 11:56:39;;;;;;;;;6.75;5.00;;;;;29.22;27.28;101845.16;6179554;23;45562;-88
2022/06/16 11:59:35;;;;;;;;;5.00;4.50;;;;;29.26;26.47;101838.53;6179311;23;47110;-88
2022/06/16 12:02:12;;;;;;;;;8.50;6.50;;;;;29.29;27.00;101836.41;6204592;22;45785;-87
2022/06/16 12:04:38;;;;;;;;;5.50;5.50;;;;;29.33;28.46;101836.97;6212487;22;45567;-88
2022/06/16 12:07:24;;;;;;;;;7.25;6.00;;;;;29.40;27.99;101837.25;6211464;22;45310;-88
2022/06/16 12:10:13;;;;;;;;;7.00;4.75;;;;;29.56;27.53;101834.00;6210641;22;45417;-88
2022/06/16 12:13:03;;;;;;;;;4.50;4.50;;;;;29.69;27.55;101835.38;6193824;22;45336;-88
2022/06/16 12:15:32;;;;;;;;;6.25;6.00;;;;;29.82;27.06;101829.75;6184876;22;45266;-87
2022/06/16 12:18:12;;;;;;;;;5.75;5.50;;;;;29.81;26.47;101846.00;6211748;22;45279;-88
2022/06/16 12:21:01;;;;;;;;;6.00;5.50;;;;;29.85;25.95;101837.53;6184416;22;47272;-87
2022/06/16 12:23:59;;;;;;;;;5.00;4.00;;;;;29.86;25.04;101828.47;6211497;22;45758;-88
2022/06/16 12:26:46;;;;;;;;;6.75;5.75;;;;;29.99;26.24;101832.69;6211549;22;45217;-88
2022/06/16 12:29:20;;;;;;;;;4.25;4.25;;;;;30.05;26.06;101830.28;6211893;22;45402;-88
2022/06/16 12:32:13;;;;;;;;;6.25;6.00;;;;;30.18;26.42;101829.09;6210763;22;45624;-87
2022/06/16 12:34:57;;;;;;;;;8.25;5.25;;;;;30.33;25.63;101827.66;6184463;22;45238;-88
2022/06/16 12:37:27;;;;;;;;;5.75;4.75;;;;;30.31;24.53;101818.84;6210023;22;45300;-88
2022/06/16 12:40:07;;;;;;;;;7.50;6.00;;;;;30.41;24.86;101814.34;6159607;22;45499;-88
2022/06/16 12:42:37;;;;;;;;;5.00;5.00;;;;;30.55;25.18;101812.13;6184309;22;47188;-87
2022/06/16 12:45:07;;;;;;;;;7.00;4.25;;;;;30.67;25.37;101801.03;6211230;22;45299;-88
2022/06/16 12:47:42;;;;;;;;;4.50;4.50;;;;;30.64;24.03;101784.38;6184887;22;45362;-88
2022/06/16 12:50:13;;;;;;;;;3.00;3.00;;;;;30.79;24.10;101800.81;6159495;22;45269;-88
2022/06/16 12:52:42;;;;;;;;;5.00;4.00;;;;;30.86;24.32;101805.44;6209888;22;46526;-87
2022/06/16 12:55:16;;;;;;;;;4.50;4.50;;;;;30.99;24.05;101797.03;6184643;22;45750;-87
2022/06/16 12:57:47;;;;;;;;;3.75;3.25;;;;;31.01;22.75;101799.56;6184901;22;45388;-88
2022/06/16 13:00:18;;;;;;;;;6.00;4.00;;;;;31.10;22.97;101804.03;6209769;22;45462;-87
2022/06/16 13:02:48;;;;;;;;;3.75;3.75;;;;;31.13;22.44;101782.22;6210858;22;46224;-88
2022/06/16 13:05:14;;;;;;;;;5.00;3.00;;;;;31.26;21.80;101790.75;6185064;22;45370;-88
2022/06/16 13:07:42;;;;;;;;;2.75;2.75;;;;;31.41;21.72;101787.50;6184360;22;45431;-87
2022/06/16 13:10:09;;;;;;;;;5.50;4.50;;;;;31.61;22.21;101788.16;6184934;22;45232;-88